createdAt,value
2018-06-28T08:17:04.390Z,16.8
2018-06-28T08:17:54.683Z,16.8
2018-06-28T08:18:44.727Z,16.8
2018-06-28T08:19:34.805Z,16.8
2018-06-28T08:20:24.897Z,16.8
2018-06-28T08:21:14.934Z,16.8
2018-06-28T08:22:05.028Z,16.7
2018-06-28T08:22:54.501Z,16.8
2018-06-28T08:23:45.125Z,16.6
2018-06-28T08:24:34.332Z,16.6
2018-06-28T08:25:25.257Z,16.6
2018-06-28T08:26:15.037Z,16.6
2018-06-28T08:27:05.949Z,16.6
2018-06-28T08:27:55.169Z,16.6
2018-06-28T08:28:44.938Z,16.6
2018-06-28T08:29:35.275Z,16.5
2018-06-28T08:30:24.783Z,16.6
2018-06-28T08:31:15.434Z,16.7
2018-06-28T08:32:05.455Z,16.6
2018-06-28T08:32:55.810Z,16.7
2018-06-28T08:33:45.590Z,16.8
2018-06-28T08:34:35.384Z,16.9
2018-06-28T08:35:25.756Z,16.9
2018-06-28T08:38:45.976Z,16.9
2018-06-28T08:39:36.314Z,16.9
2018-06-28T08:40:26.421Z,16.9
2018-06-28T08:42:06.223Z,17.1
2018-06-28T08:42:56.097Z,17.1
2018-06-28T08:43:46.335Z,17.2
2018-06-28T08:44:36.730Z,17.1
2018-06-28T08:45:26.759Z,17.1
2018-06-28T08:47:06.859Z,16.9
2018-06-28T08:47:56.644Z,16.9
2018-06-28T08:48:46.713Z,16.9
2018-06-28T08:49:37.084Z,16.9
2018-06-28T08:50:26.860Z,17.1
2018-06-28T08:51:17.199Z,17.1
2018-06-28T08:53:46.824Z,16.9
2018-06-28T08:55:26.953Z,17.1
2018-06-28T08:56:17.580Z,17.1
2018-06-28T08:57:07.644Z,16.9
2018-06-28T08:58:47.261Z,16.9
2018-06-28T08:59:37.581Z,16.8
2018-06-28T09:00:27.887Z,16.8
2018-06-28T09:01:17.645Z,16.8
2018-06-28T09:02:07.719Z,16.9
2018-06-28T09:02:57.790Z,16.9
2018-06-28T09:03:48.192Z,16.9
2018-06-28T09:05:28.264Z,16.9
2018-06-28T09:06:18.339Z,16.9
2018-06-28T09:07:08.099Z,16.9
2018-06-28T09:08:48.491Z,17.1
2018-06-28T09:09:38.292Z,17.1
2018-06-28T09:10:28.060Z,17.1
2018-06-28T09:11:18.503Z,17.2
2018-06-28T09:12:08.493Z,17.1
2018-06-28T09:12:58.809Z,17.2
2018-06-28T09:13:48.860Z,17.3
2018-06-28T09:14:38.665Z,17.3
2018-06-28T09:15:29.322Z,17.1
2018-06-28T09:16:19.061Z,17.1
2018-06-28T09:17:08.851Z,17.1
2018-06-28T09:18:49.265Z,16.9
2018-06-28T09:19:39.315Z,16.9
2018-06-28T09:20:28.939Z,16.9
2018-06-28T09:22:09.230Z,17.1
2018-06-28T09:23:00.072Z,17.1
2018-06-28T09:23:49.625Z,17.1
2018-06-28T09:24:39.441Z,17.1
2018-06-28T09:25:29.746Z,17.2
2018-06-28T09:26:19.518Z,17.3
2018-06-28T09:27:09.866Z,17.3
2018-06-28T09:27:59.957Z,17.4
2018-06-28T09:28:49.738Z,17.5
2018-06-28T09:29:39.515Z,17.6
2018-06-28T09:30:29.948Z,17.6
2018-06-28T09:31:19.913Z,17.6
2018-06-28T09:32:10.255Z,17.5
2018-06-28T09:33:00.297Z,17.6
2018-06-28T09:33:50.380Z,17.6
2018-06-28T09:34:40.467Z,17.7
2018-06-28T09:35:30.494Z,17.7
2018-06-28T09:36:20.551Z,17.8
2018-06-28T09:37:10.359Z,17.7
2018-06-28T09:38:00.688Z,17.8
2018-06-28T09:38:50.790Z,17.8
2018-06-28T09:39:40.827Z,17.7
2018-06-28T09:40:30.885Z,17.8
2018-06-28T09:41:20.691Z,17.7
2018-06-28T09:42:10.466Z,17.6
2018-06-28T09:43:01.069Z,17.6
2018-06-28T09:43:50.868Z,17.4
2018-06-28T09:44:41.044Z,17.5
2018-06-28T09:45:31.296Z,17.5
2018-06-28T09:46:21.313Z,17.6
2018-06-28T09:47:11.366Z,17.6
2018-06-28T09:48:01.164Z,17.6
2018-06-28T09:48:51.233Z,17.4
2018-06-28T09:49:41.562Z,17.3
2018-06-28T09:50:31.638Z,17.4
2018-06-28T09:51:21.442Z,17.5
2018-06-28T09:52:11.509Z,17.6
2018-06-28T09:53:01.831Z,17.5
2018-06-28T09:53:51.604Z,17.5
2018-06-28T09:54:41.870Z,17.6
2018-06-28T09:55:32.049Z,17.6
2018-06-28T09:56:21.532Z,17.5
2018-06-28T09:57:11.864Z,17.4
2018-06-28T09:58:02.197Z,17.4
2018-06-28T09:58:51.972Z,17.4
2018-06-28T09:59:42.040Z,17.5
2018-06-28T10:00:33.524Z,17.4
2018-06-28T10:01:22.454Z,17.5
2018-06-28T10:02:12.538Z,17.6
2018-06-28T10:03:02.596Z,17.4
2018-06-28T10:03:52.348Z,17.4
2018-06-28T10:04:42.764Z,17.4
2018-06-28T10:05:32.783Z,17.5
2018-06-28T10:06:22.004Z,17.4
2018-06-28T10:07:12.377Z,17.4
2018-06-28T10:08:02.666Z,17.4
2018-06-28T10:08:53.008Z,17.5
2018-06-28T10:09:43.089Z,17.6
2018-06-28T10:10:32.617Z,17.6
2018-06-28T10:11:22.928Z,17.5
2018-06-28T10:12:13.288Z,17.4
2018-06-28T10:13:03.327Z,17.4
2018-06-28T10:13:53.136Z,17.4
2018-06-28T10:14:43.755Z,17.4
2018-06-28T10:15:33.512Z,17.4
2018-06-28T10:16:23.686Z,17.5
2018-06-28T10:17:13.641Z,17.5
2018-06-28T10:18:04.107Z,17.6
2018-06-28T10:18:53.817Z,17.6
2018-06-28T10:19:43.890Z,17.5
2018-06-28T10:20:33.419Z,17.5
2018-06-28T10:21:23.970Z,17.5
2018-06-28T10:22:14.032Z,17.6
2018-06-28T10:23:04.122Z,17.6
2018-06-28T10:23:53.603Z,17.6
2018-06-28T10:24:44.911Z,17.5
2018-06-28T10:25:33.993Z,17.6
2018-06-28T10:26:24.327Z,17.6
2018-06-28T10:27:14.172Z,17.6
2018-06-28T10:28:04.188Z,17.5
2018-06-28T10:28:54.514Z,17.4
2018-06-28T10:29:44.637Z,17.5
2018-06-28T10:30:34.639Z,17.6
2018-06-28T10:31:24.771Z,17.6
2018-06-28T10:32:14.294Z,17.6
2018-06-28T10:33:04.854Z,17.6
2018-06-28T10:33:54.900Z,17.5
2018-06-28T10:34:44.952Z,17.5
2018-06-28T10:35:35.014Z,17.4
2018-06-28T10:36:25.086Z,17.5
2018-06-28T10:37:15.138Z,17.6
2018-06-28T10:38:05.191Z,17.6
2018-06-28T10:38:54.989Z,17.5
2018-06-28T10:39:45.338Z,17.6
2018-06-28T10:40:34.859Z,17.6
2018-06-28T10:41:25.453Z,17.5
2018-06-28T10:42:15.519Z,17.6
2018-06-28T10:43:05.606Z,17.6
2018-06-28T10:43:55.653Z,17.6
2018-06-28T10:44:45.736Z,17.7
2018-06-28T10:45:35.797Z,17.7
2018-06-28T10:46:25.847Z,17.7
2018-06-28T10:47:15.608Z,17.6
2018-06-28T10:48:05.995Z,17.6
2018-06-28T10:48:55.742Z,17.5
2018-06-28T10:49:46.106Z,17.4
2018-06-28T10:50:36.205Z,17.3
2018-06-28T10:51:25.381Z,17.3
2018-06-28T10:52:16.024Z,17.3
2018-06-28T10:53:05.788Z,17.3
2018-06-28T10:53:56.759Z,17.2
2018-06-28T10:54:46.500Z,17.2
2018-06-28T10:55:36.516Z,17.1
2018-06-28T10:56:26.601Z,17.3
2018-06-28T10:57:16.683Z,17.3
2018-06-28T10:58:06.477Z,17.3
2018-06-28T10:58:56.240Z,17.3
2018-06-28T10:59:46.881Z,17.3
2018-06-28T11:00:36.923Z,17.4
2018-06-28T11:01:26.716Z,17.4
2018-06-28T11:02:17.049Z,17.3
2018-06-28T11:03:06.838Z,17.3
2018-06-28T11:03:57.214Z,17.2
2018-06-28T11:04:46.942Z,17.2
2018-06-28T11:05:37.317Z,17.1
2018-06-28T11:07:17.146Z,16.9
2018-06-28T11:08:07.533Z,16.9
2018-06-28T11:08:56.978Z,16.8
2018-06-28T11:09:47.326Z,16.9
2018-06-28T11:10:37.672Z,16.9
2018-06-28T11:11:27.445Z,17.1
2018-06-28T11:12:17.830Z,17.1
2018-06-28T11:13:07.593Z,17.3
2018-06-28T11:13:57.637Z,17.4
2018-06-28T11:14:48.004Z,17.5
2018-06-28T11:15:38.334Z,17.7
2018-06-28T11:16:28.110Z,17.8
2018-06-28T11:17:18.161Z,18
2018-06-28T11:18:07.944Z,18.1
2018-06-28T11:18:58.300Z,18.1
2018-06-28T11:19:48.347Z,18.2
2018-06-28T11:20:38.143Z,18.3
2018-06-28T11:21:28.264Z,18.3
2018-06-28T11:22:18.533Z,18.4
2018-06-28T11:23:08.382Z,18.4
2018-06-28T11:23:58.381Z,18.4
2018-06-28T11:24:48.450Z,18.4
2018-06-28T11:25:38.797Z,18.4
2018-06-28T11:26:28.896Z,18.4
2018-06-28T11:27:18.102Z,18.6
2018-06-28T11:28:08.978Z,18.5
2018-06-28T11:28:59.039Z,18.4
2018-06-28T11:29:49.149Z,18.4
2018-06-28T11:30:38.906Z,18.5
2018-06-28T11:31:28.936Z,18.2
2018-06-28T11:32:19.296Z,18.1
2018-06-28T11:33:09.359Z,18.1
2018-06-28T11:33:59.340Z,18.2
2018-06-28T11:34:49.202Z,18.1
2018-06-28T11:35:38.993Z,18.1
2018-06-28T11:36:29.067Z,18.2
2018-06-28T11:37:19.410Z,18.3
2018-06-28T11:38:09.731Z,18.3
2018-06-28T11:38:59.541Z,18.3
2018-06-28T11:39:49.876Z,18.2
2018-06-28T11:40:39.667Z,18.3
2018-06-28T11:41:29.994Z,18.3
2018-06-28T11:42:20.058Z,18.3
2018-06-28T11:43:10.116Z,18.3
2018-06-28T11:44:00.185Z,18.3
2018-06-28T11:44:49.957Z,18.2
2018-06-28T11:45:39.482Z,18
2018-06-28T11:46:29.248Z,18
2018-06-28T11:47:20.443Z,17.9
2018-06-28T11:48:10.262Z,17.8
2018-06-28T11:48:59.987Z,17.8
2018-06-28T11:49:50.372Z,17.8
2018-06-28T11:50:40.400Z,17.8
2018-06-28T11:51:30.769Z,17.7
2018-06-28T11:52:20.156Z,17.6
2018-06-28T11:53:10.880Z,17.7
2018-06-28T11:54:00.929Z,17.6
2018-06-28T11:54:50.993Z,17.6
2018-06-28T11:55:40.805Z,17.6
2018-06-28T11:56:31.122Z,17.6
2018-06-28T11:57:21.195Z,17.6
2018-06-28T11:58:10.696Z,17.6
2018-06-28T11:59:01.016Z,17.6
2018-06-28T11:59:51.116Z,17.7
2018-06-28T12:00:40.938Z,17.7
2018-06-28T12:01:31.220Z,17.6
2018-06-28T12:02:21.597Z,17.5
2018-06-28T12:03:11.687Z,17.4
2018-06-28T12:04:01.672Z,17.5
2018-06-28T12:04:51.734Z,17.5
2018-06-28T12:05:42.504Z,17.6
2018-06-28T12:06:31.595Z,17.6
2018-06-28T12:07:21.945Z,17.6
2018-06-28T12:08:11.720Z,17.6
2018-06-28T12:09:02.069Z,17.6
2018-06-28T12:09:52.117Z,17.6
2018-06-28T12:10:41.898Z,17.6
2018-06-28T12:11:32.244Z,17.6
2018-06-28T12:12:22.047Z,17.6
2018-06-28T12:13:12.372Z,17.7
2018-06-28T12:14:02.445Z,17.8
2018-06-28T12:14:52.530Z,17.7
2018-06-28T12:15:42.305Z,17.7
2018-06-28T12:16:32.629Z,17.7
2018-06-28T12:17:22.670Z,17.7
2018-06-28T12:18:12.459Z,17.7
2018-06-28T12:19:02.831Z,17.7
2018-06-28T12:19:52.631Z,17.8
2018-06-28T12:20:42.675Z,17.8
2018-06-28T12:21:32.996Z,17.8
2018-06-28T12:22:23.359Z,17.8
2018-06-28T12:23:12.597Z,17.8
2018-06-28T12:24:03.210Z,17.8
2018-06-28T12:24:53.267Z,17.6
2018-06-28T12:25:43.083Z,17.7
2018-06-28T12:26:33.105Z,17.8
2018-06-28T12:27:23.445Z,17.8
2018-06-28T12:28:13.241Z,17.8
2018-06-28T12:29:03.565Z,17.8
2018-06-28T12:29:53.645Z,17.8
2018-06-28T12:30:43.432Z,17.8
2018-06-28T12:31:33.748Z,17.8
2018-06-28T12:32:23.817Z,17.8
2018-06-28T12:33:13.630Z,17.9
2018-06-28T12:34:03.960Z,17.9
2018-06-28T12:34:54.019Z,17.9
2018-06-28T12:35:44.066Z,17.8
2018-06-28T12:36:34.130Z,17.8
2018-06-28T12:37:23.914Z,17.7
2018-06-28T12:38:14.038Z,17.6
2018-06-28T12:39:04.342Z,17.6
2018-06-28T12:39:54.108Z,17.7
2018-06-28T12:40:43.898Z,17.7
2018-06-28T12:41:34.219Z,17.6
2018-06-28T12:42:24.306Z,17.5
2018-06-28T12:43:14.637Z,17.4
2018-06-28T12:44:04.696Z,17.4
2018-06-28T12:44:54.771Z,17.3
2018-06-28T12:45:44.833Z,17.3
2018-06-28T12:46:35.458Z,17.3
2018-06-28T12:47:24.951Z,17.2
2018-06-28T12:48:14.756Z,17.2
2018-06-28T12:49:04.344Z,17.2
2018-06-28T12:49:55.181Z,17.2
2018-06-28T12:50:45.215Z,17.1
2018-06-28T12:51:35.011Z,17.2
2018-06-28T12:52:25.105Z,17.1
2018-06-28T12:53:15.406Z,17.2
2018-06-28T12:54:05.529Z,17.3
2018-06-28T12:54:55.505Z,17.3
2018-06-28T12:55:45.331Z,17.4
2018-06-28T12:56:35.647Z,17.3
2018-06-28T12:57:25.715Z,17.3
2018-06-28T12:58:15.494Z,17.2
2018-06-28T12:59:05.283Z,17.3
2018-06-28T12:59:55.548Z,17.3
2018-06-28T13:00:45.849Z,17.3
2018-06-28T13:01:36.090Z,17.3
2018-06-28T13:02:26.100Z,17.3
2018-06-28T13:03:16.157Z,17.3
2018-06-28T13:04:05.942Z,17.3
2018-06-28T13:04:56.002Z,17.3
2018-06-28T13:05:45.768Z,17.3
2018-06-28T13:06:36.416Z,17.2
2018-06-28T13:07:26.206Z,17.3
2018-06-28T13:08:16.299Z,17.3
2018-06-28T13:09:06.650Z,17.3
2018-06-28T13:09:56.650Z,17.3
2018-06-28T13:10:46.727Z,17.3
2018-06-28T13:11:36.531Z,17.3
2018-06-28T13:12:26.323Z,17.4
2018-06-28T13:13:16.647Z,17.4
2018-06-28T13:14:07.020Z,17.3
2018-06-28T13:14:56.771Z,17.3
2018-06-28T13:15:47.094Z,17.3
2018-06-28T13:16:36.868Z,17.3
2018-06-28T13:17:27.222Z,17.3
2018-06-28T13:18:16.711Z,17.3
2018-06-28T13:19:07.376Z,17.3
2018-06-28T13:19:57.700Z,17.3
2018-06-28T13:20:47.495Z,17.2
2018-06-28T13:21:37.524Z,17.1
2018-06-28T13:22:27.620Z,17.2
2018-06-28T13:23:17.670Z,17.2
2018-06-28T13:24:07.448Z,17.3
2018-06-28T13:24:57.790Z,17.1
2018-06-28T13:25:47.295Z,17.1
2018-06-28T13:26:37.662Z,17.1
2018-06-28T13:27:28.043Z,17.1
2018-06-28T13:28:18.038Z,17.1
2018-06-28T13:29:08.103Z,17.1
2018-06-28T13:29:57.882Z,17.1
2018-06-28T13:30:48.268Z,17.1
2018-06-28T13:31:37.470Z,16.9
2018-06-28T13:32:28.350Z,16.9
2018-06-28T13:33:18.180Z,16.9
2018-06-28T13:34:58.585Z,16.9
2018-06-28T13:35:48.047Z,17.1
2018-06-28T13:36:38.089Z,16.9
2018-06-28T13:37:28.740Z,16.9
2018-06-28T13:38:18.219Z,16.9
2018-06-28T13:39:09.129Z,16.9
2018-06-28T13:39:58.910Z,16.9
2018-06-28T13:40:50.256Z,16.9
2018-06-28T13:41:43.060Z,17.1
2018-06-28T13:42:28.919Z,17.1
2018-06-28T13:43:19.165Z,17.1
2018-06-28T13:44:08.724Z,17.1
2018-06-28T13:44:59.004Z,17.2
2018-06-28T13:45:49.095Z,17.3
2018-06-28T13:46:39.464Z,17.3
2018-06-28T13:47:29.531Z,17.2
2018-06-28T13:48:19.315Z,17.3
2018-06-28T13:49:09.986Z,17.3
2018-06-28T13:49:59.405Z,17.2
2018-06-28T13:50:49.747Z,17.2
2018-06-28T13:51:39.509Z,17.3
2018-06-28T13:52:29.596Z,17.3
2018-06-28T13:53:19.631Z,17.3
2018-06-28T13:54:09.996Z,17.3
2018-06-28T13:55:00.090Z,17.3
2018-06-28T13:55:49.335Z,17.3
2018-06-28T13:56:39.693Z,17.3
2018-06-28T13:57:30.254Z,17.3
2018-06-28T13:58:20.330Z,17.3
2018-06-28T13:59:09.816Z,17.1
2018-06-28T14:00:00.451Z,17.1
2018-06-28T14:00:50.542Z,17.1
2018-06-28T14:02:30.080Z,17.1
2018-06-28T14:05:00.805Z,17.1
2018-06-28T14:06:40.955Z,16.9
2018-06-28T14:07:30.721Z,16.8
2018-06-28T14:08:20.508Z,16.6
2018-06-28T14:09:11.118Z,16.7
2018-06-28T14:10:00.907Z,16.6
2018-06-28T14:10:50.687Z,16.6
2018-06-28T14:11:41.308Z,16.6
2018-06-28T14:12:31.367Z,16.6
2018-06-28T14:13:21.151Z,16.6
2018-06-28T14:14:11.220Z,16.4
2018-06-28T14:15:01.566Z,16.3
2018-06-28T14:15:51.646Z,16.3
2018-06-28T14:16:41.673Z,16.4
2018-06-28T14:17:31.755Z,16.4
2018-06-28T14:18:21.534Z,16.5
2018-06-28T14:19:11.877Z,16.5
2018-06-28T14:20:01.663Z,16.6
2018-06-28T14:20:51.728Z,16.6
2018-06-28T14:21:42.035Z,16.5
2018-06-28T14:22:31.576Z,16.4
2018-06-28T14:23:21.905Z,16.5
2018-06-28T14:24:11.966Z,16.5
2018-06-28T14:25:02.305Z,16.5
2018-06-28T14:25:52.946Z,16.5
2018-06-28T14:26:42.145Z,16.5
2018-06-28T14:27:32.505Z,16.4
2018-06-28T14:28:22.560Z,16.4
2018-06-28T14:29:12.065Z,16.4
2018-06-28T14:30:02.681Z,16.4
2018-06-28T14:30:52.729Z,16.5
2018-06-28T14:31:42.812Z,16.5
2018-06-28T14:32:32.869Z,16.6
2018-06-28T14:33:22.643Z,16.7
2018-06-28T14:34:12.983Z,16.6
2018-06-28T14:35:03.311Z,16.6
2018-06-28T14:35:52.882Z,16.5
2018-06-28T14:36:43.177Z,16.6
2018-06-28T14:37:33.262Z,16.6
2018-06-28T14:38:23.333Z,16.8
2018-06-28T14:39:13.403Z,16.8
2018-06-28T14:40:02.868Z,16.8
2018-06-28T14:40:53.217Z,16.8
2018-06-28T14:41:44.039Z,16.8
2018-06-28T14:42:33.592Z,16.8
2018-06-28T14:43:23.435Z,16.8
2018-06-28T14:44:13.740Z,16.7
2018-06-28T14:45:04.822Z,16.7
2018-06-28T14:45:53.855Z,16.7
2018-06-28T14:46:43.923Z,16.7
2018-06-28T14:47:34.404Z,16.7
2018-06-28T14:48:24.065Z,16.8
2018-06-28T14:49:14.157Z,16.8
2018-06-28T14:50:03.926Z,16.7
2018-06-28T14:50:54.273Z,16.8
2018-06-28T14:51:44.321Z,16.7
2018-06-28T14:52:33.587Z,16.6
2018-06-28T14:53:24.478Z,16.7
2018-06-28T14:54:14.228Z,16.7
2018-06-28T14:55:04.347Z,16.7
2018-06-28T14:55:54.636Z,16.7
2018-06-28T14:56:44.711Z,16.7
2018-06-28T14:57:34.755Z,16.7
2018-06-28T14:58:24.540Z,16.8
2018-06-28T14:59:14.875Z,16.8
2018-06-28T15:00:04.956Z,16.7
2018-06-28T15:00:55.075Z,16.7
2018-06-28T15:01:44.800Z,16.7
2018-06-28T15:02:34.837Z,16.7
2018-06-28T15:03:24.923Z,16.6
2018-06-28T15:04:14.386Z,16.7
2018-06-28T15:05:05.049Z,16.7
2018-06-28T15:05:54.856Z,16.7
2018-06-28T15:06:45.174Z,16.7
2018-06-28T15:07:35.242Z,16.8
2018-06-28T15:08:25.312Z,16.8
2018-06-28T15:09:15.649Z,16.8
2018-06-28T15:10:05.714Z,16.7
2018-06-28T15:10:55.754Z,16.7
2018-06-28T15:11:45.882Z,16.7
2018-06-28T15:12:35.892Z,16.7
2018-06-28T15:13:25.682Z,16.8
2018-06-28T15:14:16.007Z,16.8
2018-06-28T15:15:06.071Z,16.8
2018-06-28T15:15:56.132Z,16.8
2018-06-28T15:16:46.203Z,16.8
2018-06-28T15:17:36.259Z,16.8
2018-06-28T15:18:26.334Z,16.8
2018-06-28T15:19:16.319Z,16.9
2018-06-28T15:20:06.171Z,16.9
2018-06-28T15:20:56.555Z,16.9
2018-06-28T15:21:46.596Z,16.9
2018-06-28T15:22:36.688Z,16.9
2018-06-28T15:23:26.705Z,16.9
2018-06-28T15:24:16.778Z,16.9
2018-06-28T15:25:06.848Z,16.9
2018-06-28T15:25:56.627Z,16.9
2018-06-28T15:26:46.986Z,16.9
2018-06-28T15:27:37.256Z,16.9
2018-06-28T15:28:27.095Z,16.9
2018-06-28T15:30:06.654Z,16.9
2018-06-28T15:30:56.725Z,16.9
2018-06-28T15:31:47.389Z,16.9
2018-06-28T15:32:36.843Z,16.9
2018-06-28T15:33:27.722Z,16.9
2018-06-28T15:34:17.268Z,16.9
2018-06-28T15:35:07.594Z,16.9
2018-06-28T15:35:57.720Z,16.9
2018-06-28T15:36:47.718Z,16.8
2018-06-28T15:37:37.766Z,16.8
2018-06-28T15:38:27.276Z,16.8
2018-06-28T15:39:17.913Z,16.8
2018-06-28T15:40:07.955Z,16.8
2018-06-28T15:40:57.578Z,16.8
2018-06-28T15:41:48.092Z,16.8
2018-06-28T15:42:38.120Z,16.8
2018-06-28T15:43:27.343Z,16.8
2018-06-28T15:44:18.275Z,16.8
2018-06-28T15:45:08.048Z,16.7
2018-06-28T15:45:58.446Z,16.8
2018-06-28T15:46:47.627Z,16.7
2018-06-28T15:47:38.302Z,16.8
2018-06-28T15:48:28.317Z,16.8
2018-06-28T15:49:18.637Z,16.7
2018-06-28T15:50:08.712Z,16.6
2018-06-28T15:50:58.744Z,16.7
2018-06-28T15:51:48.818Z,16.6
2018-06-28T15:52:38.924Z,16.6
2018-06-28T15:53:28.684Z,16.6
2018-06-28T15:54:18.459Z,16.6
2018-06-28T15:55:08.506Z,16.6
2018-06-28T15:55:58.858Z,16.6
2018-06-28T15:56:49.211Z,16.6
2018-06-28T15:57:39.377Z,16.6
2018-06-28T15:58:28.844Z,16.6
2018-06-28T15:59:18.926Z,16.6
2018-06-28T16:00:09.493Z,16.6
2018-06-28T16:00:59.518Z,16.6
2018-06-28T16:01:49.293Z,16.7
2018-06-28T16:02:39.176Z,16.7
2018-06-28T16:03:29.440Z,16.7
2018-06-28T16:04:19.504Z,16.6
2018-06-28T16:05:09.598Z,16.7
2018-06-28T16:05:59.901Z,16.7
2018-06-28T16:06:49.683Z,16.7
2018-06-28T16:07:40.054Z,16.7
2018-06-28T16:08:30.079Z,16.6
2018-06-28T16:09:20.144Z,16.6
2018-06-28T16:10:09.733Z,16.6
2018-06-28T16:11:00.033Z,16.7
2018-06-28T16:11:49.849Z,16.6
2018-06-28T16:12:39.822Z,16.6
2018-06-28T16:13:30.456Z,16.6
2018-06-28T16:14:20.512Z,16.6
2018-06-28T16:15:10.290Z,16.6
2018-06-28T16:16:00.384Z,16.6
2018-06-28T16:16:50.284Z,16.6
2018-06-28T16:17:40.057Z,16.6
2018-06-28T16:18:30.551Z,16.6
2018-06-28T16:19:20.878Z,16.6
2018-06-28T16:20:10.962Z,16.6
2018-06-28T16:21:00.481Z,16.6
2018-06-28T16:21:51.092Z,16.6
2018-06-28T16:22:41.156Z,16.7
2018-06-28T16:23:31.589Z,16.7
2018-06-28T16:24:20.718Z,16.8
2018-06-28T16:25:11.054Z,16.8
2018-06-28T16:26:01.184Z,16.8
2018-06-28T16:26:51.509Z,16.7
2018-06-28T16:27:41.543Z,16.7
2018-06-28T16:28:31.620Z,16.8
2018-06-28T16:29:21.699Z,16.8
2018-06-28T16:30:11.747Z,16.7
2018-06-28T16:31:01.244Z,16.8
2018-06-28T16:31:51.876Z,16.8
2018-06-28T16:32:41.644Z,16.8
2018-06-28T16:33:31.978Z,16.8
2018-06-28T16:34:22.090Z,16.8
2018-06-28T16:35:12.133Z,16.8
2018-06-28T16:36:02.182Z,16.8
2018-06-28T16:36:51.963Z,16.8
2018-06-28T16:37:42.031Z,16.8
2018-06-28T16:38:32.356Z,16.8
2018-06-28T16:39:22.712Z,16.8
2018-06-28T16:40:12.499Z,16.8
2018-06-28T16:41:02.535Z,16.8
2018-06-28T16:41:52.332Z,16.8
2018-06-28T16:42:42.404Z,16.8
2018-06-28T16:43:32.446Z,16.8
2018-06-28T16:44:22.566Z,16.8
2018-06-28T16:45:12.611Z,16.8
2018-06-28T16:46:02.945Z,16.7
2018-06-28T16:46:53.008Z,16.6
2018-06-28T16:47:43.065Z,16.6
2018-06-28T16:48:33.110Z,16.6
2018-06-28T16:49:22.649Z,16.6
2018-06-28T16:50:13.252Z,16.6
2018-06-28T16:51:02.807Z,16.6
2018-06-28T16:51:53.111Z,16.6
2018-06-28T16:52:43.172Z,16.6
2018-06-28T16:53:33.204Z,16.6
2018-06-28T16:54:23.297Z,16.6
2018-06-28T16:55:13.620Z,16.6
2018-06-28T16:56:03.729Z,16.6
2018-06-28T16:56:53.777Z,16.5
2018-06-28T16:57:43.762Z,16.5
2018-06-28T16:58:33.854Z,16.5
2018-06-28T16:59:24.129Z,16.5
2018-06-28T17:00:13.983Z,16.5
2018-06-28T17:01:04.062Z,16.5
2018-06-28T17:01:53.626Z,16.5
2018-06-28T17:02:44.155Z,16.5
2018-06-28T17:03:34.221Z,16.5
2018-06-28T17:04:24.722Z,16.5
2018-06-28T17:05:14.347Z,16.4
2018-06-28T17:06:04.425Z,16.4
2018-06-28T17:06:54.488Z,16.4
2018-06-28T17:07:44.908Z,16.4
2018-06-28T17:08:34.610Z,16.4
2018-06-28T17:09:24.405Z,16.4
2018-06-28T17:10:14.448Z,16.4
2018-06-28T17:11:04.805Z,16.4
2018-06-28T17:11:54.852Z,16.4
2018-06-28T17:12:44.926Z,16.4
2018-06-28T17:13:34.987Z,16.4
2018-06-28T17:14:25.205Z,16.4
2018-06-28T17:15:15.102Z,16.5
2018-06-28T17:16:04.910Z,16.4
2018-06-28T17:16:55.246Z,16.4
2018-06-28T17:17:44.278Z,16.4
2018-06-28T17:18:35.366Z,16.4
2018-06-28T17:19:25.186Z,16.4
2018-06-28T17:20:15.460Z,16.4
2018-06-28T17:21:05.557Z,16.4
2018-06-28T17:21:55.346Z,16.4
2018-06-28T17:22:45.710Z,16.4
2018-06-28T17:23:35.775Z,16.4
2018-06-28T17:24:25.080Z,16.4
2018-06-28T17:25:15.887Z,16.4
2018-06-28T17:26:05.375Z,16.4
2018-06-28T17:26:55.834Z,16.4
2018-06-28T17:27:45.796Z,16.4
2018-06-28T17:28:35.587Z,16.4
2018-06-28T17:29:25.912Z,16.4
2018-06-28T17:30:16.258Z,16.4
2018-06-28T17:31:06.325Z,16.4
2018-06-28T17:31:57.346Z,16.4
2018-06-28T17:32:46.601Z,16.4
2018-06-28T17:33:36.244Z,16.4
2018-06-28T17:34:26.271Z,16.4
2018-06-28T17:35:15.799Z,16.3
2018-06-28T17:36:06.699Z,16.3
2018-06-28T17:36:56.756Z,16.4
2018-06-28T17:37:46.871Z,16.3
2018-06-28T17:38:36.886Z,16.4
2018-06-28T17:39:26.677Z,16.3
2018-06-28T17:40:16.725Z,16.3
2018-06-28T17:41:06.532Z,16.3
2018-06-28T17:41:57.128Z,16.3
2018-06-28T17:42:47.063Z,16.3
2018-06-28T17:43:37.250Z,16.3
2018-06-28T17:44:27.359Z,16.3
2018-06-28T17:45:16.965Z,16.3
2018-06-28T17:46:07.151Z,16.3
2018-06-28T17:46:57.501Z,16.3
2018-06-28T17:47:47.309Z,16.3
2018-06-28T17:48:37.632Z,16.3
2018-06-28T17:49:27.691Z,16.2
2018-06-28T17:50:17.477Z,16.3
2018-06-28T17:51:08.290Z,16.3
2018-06-28T17:51:57.871Z,16.3
2018-06-28T17:52:47.956Z,16.3
2018-06-28T17:53:38.030Z,16.2
2018-06-28T17:54:28.140Z,16.2
2018-06-28T17:55:18.140Z,16.2
2018-06-28T17:56:08.200Z,16.2
2018-06-28T17:56:58.270Z,16.2
2018-06-28T17:57:48.066Z,16.2
2018-06-28T17:58:38.373Z,16.1
2018-06-28T17:59:28.467Z,16.1
2018-06-28T18:00:18.533Z,16.1
2018-06-28T18:01:08.277Z,16.1
2018-06-28T18:01:58.642Z,16.1
2018-06-28T18:02:48.695Z,16.1
2018-06-28T18:03:38.732Z,16.1
2018-06-28T18:04:28.352Z,16.1
2018-06-28T18:05:18.452Z,16.1
2018-06-28T18:06:08.407Z,16
2018-06-28T18:06:58.740Z,16
2018-06-28T18:07:48.815Z,16
2018-06-28T18:08:39.152Z,16
2018-06-28T18:09:29.290Z,16
2018-06-28T18:10:19.273Z,16
2018-06-28T18:11:09.318Z,16
2018-06-28T18:11:59.400Z,16
2018-06-28T18:12:50.023Z,15.9
2018-06-28T18:13:39.704Z,15.9
2018-06-28T18:14:29.579Z,15.9
2018-06-28T18:15:19.932Z,15.9
2018-06-28T18:16:09.727Z,15.9
2018-06-28T18:16:59.507Z,15.9
2018-06-28T18:17:49.836Z,15.9
2018-06-28T18:18:39.969Z,15.9
2018-06-28T18:19:29.964Z,15.9
2018-06-28T18:20:19.464Z,15.9
2018-06-28T18:21:10.094Z,15.9
2018-06-28T18:21:59.876Z,15.9
2018-06-28T18:22:49.729Z,15.9
2018-06-28T18:23:39.238Z,15.9
2018-06-28T18:24:29.849Z,15.9
2018-06-28T18:25:20.146Z,15.8
2018-06-28T18:26:09.709Z,15.8
2018-06-28T18:27:00.268Z,15.8
2018-06-28T18:27:50.066Z,15.8
2018-06-28T18:28:40.703Z,15.8
2018-06-28T18:29:30.430Z,15.8
2018-06-28T18:30:21.334Z,15.8
2018-06-28T18:31:10.278Z,15.8
2018-06-28T18:32:00.899Z,15.8
2018-06-28T18:32:50.993Z,15.8
2018-06-28T18:33:41.041Z,15.8
2018-06-28T18:34:30.536Z,15.8
2018-06-28T18:35:20.880Z,15.8
2018-06-28T18:36:11.195Z,15.8
2018-06-28T18:37:01.250Z,15.8
2018-06-28T18:37:50.781Z,15.8
2018-06-28T18:38:41.418Z,15.8
2018-06-28T18:39:31.464Z,15.7
2018-06-28T18:40:21.560Z,15.8
2018-06-28T18:41:11.596Z,15.7
2018-06-28T18:42:00.528Z,15.7
2018-06-28T18:42:51.723Z,15.7
2018-06-28T18:43:41.802Z,15.7
2018-06-28T18:44:31.588Z,15.7
2018-06-28T18:45:21.656Z,15.7
2018-06-28T18:46:11.687Z,15.7
2018-06-28T18:47:01.485Z,15.7
2018-06-28T18:47:51.546Z,15.7
2018-06-28T18:48:42.169Z,15.7
2018-06-28T18:49:31.648Z,15.7
2018-06-28T18:50:22.012Z,15.7
2018-06-28T18:51:11.769Z,15.6
2018-06-28T18:52:02.424Z,15.6
2018-06-28T18:52:52.194Z,15.6
2018-06-28T18:53:42.613Z,15.6
2018-06-28T18:54:32.318Z,15.6
2018-06-28T18:55:22.368Z,15.6
2018-06-28T18:56:12.759Z,15.6
2018-06-28T18:57:02.789Z,15.6
2018-06-28T18:57:52.859Z,15.5
2018-06-28T18:58:42.909Z,15.5
2018-06-28T18:59:32.975Z,15.5
2018-06-28T19:00:22.760Z,15.5
2018-06-28T19:01:13.085Z,15.5
2018-06-28T19:02:03.460Z,15.4
2018-06-28T19:02:52.946Z,15.4
2018-06-28T19:03:43.297Z,15.4
2018-06-28T19:04:33.070Z,15.4
2018-06-28T19:05:23.131Z,15.4
2018-06-28T19:06:12.948Z,15.4
2018-06-28T19:07:03.253Z,15.4
2018-06-28T19:07:53.669Z,15.4
2018-06-28T19:08:43.448Z,15.4
2018-06-28T19:09:33.731Z,15.4
2018-06-28T19:10:23.524Z,15.4
2018-06-28T19:11:13.848Z,15.4
2018-06-28T19:12:03.902Z,15.4
2018-06-28T19:12:54.046Z,15.4
2018-06-28T19:13:44.096Z,15.4
2018-06-28T19:14:34.126Z,15.4
2018-06-28T19:15:24.155Z,15.4
2018-06-28T19:16:13.963Z,15.4
2018-06-28T19:17:04.294Z,15.4
2018-06-28T19:17:54.075Z,15.4
2018-06-28T19:18:44.433Z,15.4
2018-06-28T19:19:34.479Z,15.4
2018-06-28T19:20:23.993Z,15.4
2018-06-28T19:21:14.976Z,15.4
2018-06-28T19:22:04.662Z,15.4
2018-06-28T19:22:54.726Z,15.4
2018-06-28T19:23:44.787Z,15.4
2018-06-28T19:24:34.932Z,15.4
2018-06-28T19:25:24.655Z,15.4
2018-06-28T19:26:14.762Z,15.4
2018-06-28T19:27:04.493Z,15.5
2018-06-28T19:27:55.092Z,15.4
2018-06-28T19:28:44.890Z,15.4
2018-06-28T19:29:35.087Z,15.4
2018-06-28T19:30:25.068Z,15.5
2018-06-28T19:31:15.366Z,15.4
2018-06-28T19:32:05.421Z,15.4
2018-06-28T19:32:55.518Z,15.4
2018-06-28T19:33:45.561Z,15.4
2018-06-28T19:34:35.661Z,15.4
2018-06-28T19:35:25.660Z,15.4
2018-06-28T19:36:15.757Z,15.3
2018-06-28T19:37:05.801Z,15.3
2018-06-28T19:37:55.572Z,15.4
2018-06-28T19:38:45.920Z,15.4
2018-06-28T19:39:36.003Z,15.4
2018-06-28T19:40:26.067Z,15.4